Time;durP1;ratioP1;P1;durP2;ratioP2;P2;SDS_P1;SDS_P2;PMS_P1;PMS_P2;Temp;Humidity;BMP_temperature;BMP_pressure;BME280_temperature;BME280_humidity;BME280_pressure;Samples;Min_cycle;Max_cycle;Signal;HPM_P1;HPM_P2
2021/05/18 10:18:48;;;;;;;125.45;119.13;;;;;;;;;;5090372;28;20215;-67
2021/05/18 10:35:43;;;;;;;144.60;137.82;;;;;;;;;;5090262;28;20172;-67
2021/05/18 10:38:12;;;;;;;136.88;130.48;;;;;;;;;;5089937;28;20545;-68
2021/05/18 10:40:38;;;;;;;130.93;124.85;;;;;;;;;;5089896;28;20175;-67
2021/05/18 10:43:05;;;;;;;127.35;121.25;;;;;;;;;;5089831;28;20176;-68
2021/05/18 10:45:49;;;;;;;131.10;124.93;;;;;;;;;;5089545;28;20242;-67
2021/05/18 10:48:15;;;;;;;135.20;128.88;;;;;;;;;;5089750;28;20168;-68
2021/05/18 11:21:58;;;;;;;85.35;81.38;;;;;;;;;;5070711;28;20542;-67
2021/05/18 11:24:24;;;;;;;102.78;98.00;;;;;;;;;;5070696;28;20171;-67
2021/05/18 11:26:50;;;;;;;126.25;120.10;;;;;;;;;;5070576;28;20168;-68
2021/05/18 11:29:16;;;;;;;130.80;124.65;;;;;;;;;;5070586;28;20164;-67
2021/05/18 11:31:43;;;;;;;130.18;124.15;;;;;;;;;;5070606;28;20581;-68
2021/05/18 11:34:09;;;;;;;133.90;127.68;;;;;;;;;;5070471;28;20215;-68
2021/05/18 11:36:39;;;;;;;121.53;115.93;;;;;;;;;;5070424;28;20173;-67
2021/05/18 11:39:07;;;;;;;118.40;113.05;;;;;;;;;;5070479;28;20592;-68
2021/05/18 11:41:40;;;;;;;124.88;119.13;;;;;;;;;;5070267;28;20202;-68
2021/05/18 11:44:07;;;;;;;130.55;124.57;;;;;;;;;;5069101;28;20175;-68
2021/05/18 11:46:34;;;;;;;141.32;134.55;;;;;;;;;;5070216;28;20169;-67
2021/05/18 11:49:00;;;;;;;117.15;111.88;;;;;;;;;;5070237;28;20247;-67
2021/05/18 11:51:29;;;;;;;109.25;104.35;;;;;;;;;;5068946;28;20579;-68
2021/05/18 11:53:55;;;;;;;110.00;105.07;;;;;;;;;;5070145;28;20168;-68
2021/05/18 11:56:23;;;;;;;111.00;105.93;;;;;;;;;;5070017;28;20436;-68
2021/05/18 11:58:57;;;;;;;109.55;104.65;;;;;;;;;;5069986;28;20171;-68
2021/05/18 12:01:23;;;;;;;107.20;102.43;;;;;;;;;;5069908;28;20207;-68
2021/05/18 12:03:59;;;;;;;108.55;103.65;;;;;;;;;;5068573;28;20172;-68
2021/05/18 12:06:26;;;;;;;114.13;108.93;;;;;;;;;;5069556;28;20188;-68
2021/05/18 12:08:56;;;;;;;109.88;104.97;;;;;;;;;;5069754;28;20517;-68
2021/05/18 12:11:22;;;;;;;112.10;106.97;;;;;;;;;;5069783;28;20169;-68
2021/05/18 12:13:49;;;;;;;113.60;108.45;;;;;;;;;;5069719;28;20183;-68
2021/05/18 12:16:16;;;;;;;128.68;122.78;;;;;;;;;;5069667;28;20214;-68
2021/05/18 12:18:43;;;;;;;120.53;115.05;;;;;;;;;;5069578;28;20176;-68
2021/05/18 12:21:16;;;;;;;137.60;131.13;;;;;;;;;;5069228;28;20247;-68
2021/05/18 12:23:43;;;;;;;120.70;115.22;;;;;;;;;;5069490;28;20207;-68
2021/05/18 12:26:10;;;;;;;115.80;110.60;;;;;;;;;;5069408;28;20172;-68
2021/05/18 12:28:36;;;;;;;126.68;120.90;;;;;;;;;;5069423;28;20675;-68
2021/05/18 12:31:03;;;;;;;117.55;112.18;;;;;;;;;;5067916;28;20633;-68
2021/05/18 12:33:38;;;;;;;123.20;117.57;;;;;;;;;;5055875;28;20686;-68
2021/05/18 12:36:07;;;;;;;111.30;106.32;;;;;;;;;;5056051;28;20567;-68
2021/05/18 12:38:33;;;;;;;134.50;128.23;;;;;;;;;;5054720;28;20184;-68
2021/05/18 12:41:06;;;;;;;129.95;124.07;;;;;;;;;;5055870;28;20208;-68
2021/05/18 12:43:39;;;;;;;130.18;124.07;;;;;;;;;;5055943;28;20165;-68
2021/05/18 12:46:08;;;;;;;149.27;142.40;;;;;;;;;;5055906;28;20560;-68
2021/05/18 12:48:44;;;;;;;226.77;216.40;;;;;;;;;;5055855;28;20165;-68
2021/05/18 12:51:24;;;;;;;233.27;222.63;;;;;;;;;;5055956;28;20622;-68
2021/05/18 12:54:01;;;;;;;228.32;217.88;;;;;;;;;;5055670;28;20630;-68
2021/05/18 12:56:28;;;;;;;181.32;173.00;;;;;;;;;;5055789;28;20183;-68
2021/05/18 12:59:03;;;;;;;132.27;126.28;;;;;;;;;;5055661;28;20254;-68
2021/05/18 13:01:39;;;;;;;201.60;192.38;;;;;;;;;;5055554;28;20643;-68
2021/05/18 13:04:09;;;;;;;118.53;113.07;;;;;;;;;;5055591;28;20192;-68
2021/05/18 13:06:36;;;;;;;134.38;128.18;;;;;;;;;;5055385;28;20192;-68
2021/05/18 13:09:15;;;;;;;154.40;147.27;;;;;;;;;;5055392;28;20165;-68
2021/05/18 13:14:26;;;;;;;162.25;154.77;;;;;;;;;;5055322;28;20590;-68
2021/05/18 13:16:52;;;;;;;129.13;123.28;;;;;;;;;;5055317;28;20173;-68
2021/05/18 14:45:14;;;;;;;56.05;53.70;;;;;;;;;;5090956;27;20507;-68
2021/05/18 14:47:49;;;;;;;61.85;59.25;;;;;;;;;;5090877;28;20167;-68
2021/05/18 14:55:44;;;;;;;82.38;78.57;;;;;;;;;;5090777;28;20180;-68
2021/05/18 14:58:10;;;;;;;97.05;92.75;;;;;;;;;;5090699;28;20534;-68
2021/05/18 15:00:38;;;;;;;120.35;114.88;;;;;;;;;;5090678;28;20175;-67
2021/05/18 15:03:04;;;;;;;129.05;123.18;;;;;;;;;;5090557;28;20198;-67
2021/05/18 15:05:31;;;;;;;127.13;121.35;;;;;;;;;;5090546;28;20166;-67
2021/05/18 15:07:57;;;;;;;116.88;111.57;;;;;;;;;;5090425;28;20186;-68
2021/05/18 15:10:23;;;;;;;110.03;105.03;;;;;;;;;;5090498;28;20159;-68
2021/05/18 15:12:49;;;;;;;116.85;111.60;;;;;;;;;;5090446;28;20243;-68
2021/05/18 15:15:15;;;;;;;139.35;132.73;;;;;;;;;;5090369;28;20251;-68
2021/05/18 15:17:41;;;;;;;130.45;124.30;;;;;;;;;;5090330;28;20689;-68
2021/05/18 15:20:07;;;;;;;138.57;132.30;;;;;;;;;;5090269;28;20247;-68
2021/05/18 15:22:34;;;;;;;133.57;127.53;;;;;;;;;;5088884;28;20168;-68
2021/05/18 15:25:00;;;;;;;124.00;118.40;;;;;;;;;;5090062;28;20206;-68
2021/05/18 15:27:26;;;;;;;130.05;124.18;;;;;;;;;;5090155;28;20210;-68
2021/05/18 15:29:53;;;;;;;120.20;114.80;;;;;;;;;;5090115;28;20679;-67
2021/05/18 15:32:19;;;;;;;122.28;116.72;;;;;;;;;;5090009;28;20172;-68
2021/05/18 15:34:45;;;;;;;117.90;112.60;;;;;;;;;;5090089;28;20168;-68
2021/05/18 15:37:12;;;;;;;118.88;113.45;;;;;;;;;;5088622;28;20538;-68
2021/05/18 15:39:39;;;;;;;116.18;110.95;;;;;;;;;;5089937;28;20179;-68
2021/05/18 15:42:05;;;;;;;116.82;111.57;;;;;;;;;;5089854;28;20621;-68
2021/05/18 15:44:31;;;;;;;115.47;110.22;;;;;;;;;;5089583;28;20703;-68
2021/05/18 15:46:57;;;;;;;138.90;132.57;;;;;;;;;;5089707;28;20575;-68
2021/05/18 15:49:24;;;;;;;127.15;121.40;;;;;;;;;;5089712;28;20160;-68
2021/05/18 15:51:50;;;;;;;103.85;99.20;;;;;;;;;;5089667;28;20238;-68
2021/05/18 15:54:17;;;;;;;121.68;116.22;;;;;;;;;;5089562;28;20187;-68
2021/05/18 15:56:43;;;;;;;156.50;149.38;;;;;;;;;;5075428;28;20156;-68
2021/05/18 15:59:09;;;;;;;191.10;182.32;;;;;;;;;;5076054;28;20213;-68
2021/05/18 16:01:35;;;;;;;149.43;142.57;;;;;;;;;;5076015;28;20247;-63
2021/05/18 16:04:01;;;;;;;218.57;208.27;;;;;;;;;;5075898;28;20397;-63
2021/05/18 16:06:29;;;;;;;218.32;208.35;;;;;;;;;;5075780;28;20202;-63
2021/05/18 16:11:21;;;;;;;108.47;103.65;;;;;;;;;;5075828;28;20242;-63
2021/05/18 16:13:47;;;;;;;127.85;122.10;;;;;;;;;;5075696;28;20164;-63
2021/05/18 16:16:16;;;;;;;163.85;156.32;;;;;;;;;;5075662;28;20168;-63
2021/05/18 16:51:27;;;;;;;82.45;78.80;;;;;;;;;;5090921;28;20586;-66
2021/05/18 16:53:53;;;;;;;116.30;111.05;;;;;;;;;;5090885;28;20255;-67
2021/05/18 16:56:19;;;;;;;114.78;109.57;;;;;;;;;;5090662;28;20638;-67
2021/05/18 16:58:46;;;;;;;106.25;101.53;;;;;;;;;;5090751;28;20250;-67
2021/05/18 17:01:12;;;;;;;98.40;94.05;;;;;;;;;;5090733;28;20159;-67
2021/05/18 17:03:38;;;;;;;106.30;101.43;;;;;;;;;;5090734;28;20164;-67
2021/05/18 17:06:04;;;;;;;115.78;110.57;;;;;;;;;;5090626;28;20193;-67
2021/05/18 17:08:29;;;;;;;120.25;114.85;;;;;;;;;;5090599;28;20217;-67
2021/05/18 17:10:56;;;;;;;120.78;115.32;;;;;;;;;;5090411;28;20648;-67
2021/05/18 17:13:22;;;;;;;110.28;105.32;;;;;;;;;;5090501;28;20625;-67
2021/05/18 17:15:48;;;;;;;128.65;122.80;;;;;;;;;;5090401;28;20625;-67
2021/05/18 17:18:15;;;;;;;143.45;136.93;;;;;;;;;;5090387;28;20174;-67
2021/05/18 17:20:41;;;;;;;160.68;153.20;;;;;;;;;;5090381;28;20179;-67
2021/05/18 17:23:08;;;;;;;130.48;124.53;;;;;;;;;;5090189;28;20271;-67
2021/05/18 17:25:34;;;;;;;143.88;137.35;;;;;;;;;;5090258;28;20255;-67
